Weather at Ronald Reagan Washington National Airport

Public forecast

Using degrees Fahrenheit for public forecast. Weather courtesy of forecast.io.

Current aviation weather report (METAR) for Ronald Reagan Washington National Airport

2022/11/30 09:52 (retrieved 12 minutes ago)

KDCA 300952Z 16008KT 10SM SCT033 BKN041 BKN050 OVC140 09/07 A3005 RMK AO2 SLP175 T00890067

Aviation forecast (TAF) for Ronald Reagan Washington National Airport

2022/11/30 09:00 Ammendment (retrieved 1 hour ago)

TAF AMD KDCA 300857Z 3009/0112 18008KT P6SM SCT015 BKN035 OVC050 FM301000 16008G16KT 6SM -RA BKN015 OVC050 WS020/19045KT FM301300 16010G20KT 3SM RA BKN008 OVC025 WS020/19055KT FM301600 19017G28KT 6SM -SHRA BKN015 OVC050 FM302100 29018G32KT P6SM SCT035 FM010400 29012G24KT P6SM SKC